KEOK/EOK METAR and TAF weather

Enter ICAO airport designator
Station Type Date Time Source
KEOK METAR 2020/01/27 16:55 UTC NOAA

KEOK 271655Z AUTO 34004KT 6SM BR OVC004 M01/M01 A3005 RMK AO2


Station Type Date Time Source
KEOK Decoded METAR 2020/01/27 16:55 UTC NOAA

Keokuk Municipal, IA, United States (KEOK) 40-28N 091-26W
Jan 27, 2020 - 11:55 AM EST / 2020.01.27 1655 UTC
Wind: from the NNW (340 degrees) at 5 MPH (4 KT):0
Visibility: 6 mile(s):0
Sky conditions: overcast
Weather: mist
Temperature: 30 F (-1 C)
Windchill: 24 F (-4 C):1
Dew Point: 30 F (-1 C)
Relative Humidity: 100%
Pressure (altimeter): 30.05 in. Hg (1017 hPa)
ob: KEOK 271655Z AUTO 34004KT 6SM BR OVC004 M01/M01 A3005 RMK AO2
cycle: 17

Station Type Date Time Source
KEOK TAF UTC NOAA

Error!

Example: see airport list